Hermann - S — V2EI6 — position and weather

sailwx.info

Track history (hours):
 
Tides and Currents Weather Stations Pressure Air Temp Water Temp Dewpoint Dewpoint Depression Visibility Wind Speed Wind Dir Waves Ship Positions

Hermann - S

Last reported at 2017-Jan-07 17:33 UTC. Time now 2017-Jan-20 20:10 UTC.
Position N 37°44' E 024°33'.
Warning: this ship's position is 13 days out of date.

Length 190 m; draft 12.2 m.

Type: Ship. MMSI: 305441000.

Date/timePositionNaut miles runAvg speedWind from/ knotsBaromVisibWave heightAir tempDewpointWater temp
2017-Jan-07 17:33N 37°44' E 024°33'48210.7
2017-Jan-05 20:33N 36°29' E 014°35'1211.6
2017-Jan-05 19:33N 36°32' E 014°21'1211.8
2017-Jan-05 18:33N 36°35' E 014°07'1211.9
2017-Jan-05 17:33N 36°39' E 013°53'1212.4
2017-Jan-05 16:33N 36°43' E 013°39'64313.1
2017-Jan-03 15:30N 36°45' E 000°17'12613.6
2017-Jan-03 06:14N 36°19' W 002°17'913.5
2017-Jan-03 05:32N 36°18' W 002°29'  
2016-Dec-29 23:22N 37°59' W 023°48'7 8.8
2016-Dec-29 22:33N 38°00' W 023°57'8 8.2
2016-Dec-29 21:33N 38°01' W 024°08'8 8.0
2016-Dec-29 20:33N 38°02' W 024°18'8 7.7
2016-Dec-29 19:33N 38°03' W 024°28'8 8.0
2016-Dec-29 18:33N 38°03' W 024°38'8 8.2
2016-Dec-29 17:33N 38°04' W 024°48'8 8.3
2016-Dec-29 16:33N 38°04' W 024°59'8 8.2
2016-Dec-29 15:33N 38°04' W 025°09'9 8.9
2016-Dec-29 14:33N 38°04' W 025°20'1010.4
2016-Dec-29 13:33N 38°04' W 025°34'1110.6
2016-Dec-29 12:33N 38°05' W 025°47'1110.8
2016-Dec-29 11:33N 38°06' W 026°01'10 9.7
2016-Dec-29 10:33N 38°06' W 026°13'9 9.3
2016-Dec-29 09:33N 38°07' W 026°25'9 9.4
2016-Dec-29 08:33N 38°07' W 026°37'9 8.9
2016-Dec-29 07:33N 38°08' W 026°48'8 8.5
2016-Dec-29 06:33N 38°08' W 026°59'8 8.4
2016-Dec-29 05:33N 38°09' W 027°10'9 8.9
2016-Dec-29 04:33N 38°09' W 027°21'8 7.7
2016-Dec-29 03:33N 38°09' W 027°31'8 7.5
2016-Dec-29 02:33N 38°10' W 027°40'8 7.8
2016-Dec-29 01:33N 38°10' W 027°50'9 8.7
2016-Dec-29 00:33N 38°10' W 028°01'8 8.4
2016-Dec-28 23:33N 38°11' W 028°12'9 9.2
2016-Dec-28 22:33N 38°12' W 028°24'10 9.7
2016-Dec-28 21:33N 38°12' W 028°36'9 9.1
2016-Dec-28 20:33N 38°12' W 028°48'9 9.1
2016-Dec-28 19:33N 38°13' W 028°59'9 8.5
2016-Dec-28 18:33N 38°13' W 029°10'9 8.6
2016-Dec-28 17:33N 38°14' W 029°21'  
Track history (hours):
 
Tides and Currents Weather Stations Pressure Air Temp Water Temp Dewpoint Dewpoint Depression Visibility Wind Speed Wind Dir Waves Ship Positions

Hermann - S

Last reported at 2017-Jan-07 17:33 UTC. Time now 2017-Jan-20 20:10 UTC.
Position N 37°44' E 024°33'.
Warning: this ship's position is 13 days out of date.

Length 190 m; draft 12.2 m.

Type: Ship. MMSI: 305441000.

Date/timePositionNaut miles runAvg speedWind from/ knotsBaromVisibWave heightAir tempDewpointWater temp
2017-Jan-07 17:33N 37°44' E 024°33'48210.7
2017-Jan-05 20:33N 36°29' E 014°35'1211.6
2017-Jan-05 19:33N 36°32' E 014°21'1211.8
2017-Jan-05 18:33N 36°35' E 014°07'1211.9
2017-Jan-05 17:33N 36°39' E 013°53'1212.4
2017-Jan-05 16:33N 36°43' E 013°39'64313.1
2017-Jan-03 15:30N 36°45' E 000°17'12613.6
2017-Jan-03 06:14N 36°19' W 002°17'913.5
2017-Jan-03 05:32N 36°18' W 002°29'  
2016-Dec-29 23:22N 37°59' W 023°48'7 8.8
2016-Dec-29 22:33N 38°00' W 023°57'8 8.2
2016-Dec-29 21:33N 38°01' W 024°08'8 8.0
2016-Dec-29 20:33N 38°02' W 024°18'8 7.7
2016-Dec-29 19:33N 38°03' W 024°28'8 8.0
2016-Dec-29 18:33N 38°03' W 024°38'8 8.2
2016-Dec-29 17:33N 38°04' W 024°48'8 8.3
2016-Dec-29 16:33N 38°04' W 024°59'8 8.2
2016-Dec-29 15:33N 38°04' W 025°09'9 8.9
2016-Dec-29 14:33N 38°04' W 025°20'1010.4
2016-Dec-29 13:33N 38°04' W 025°34'1110.6
2016-Dec-29 12:33N 38°05' W 025°47'1110.8
2016-Dec-29 11:33N 38°06' W 026°01'10 9.7
2016-Dec-29 10:33N 38°06' W 026°13'9 9.3
2016-Dec-29 09:33N 38°07' W 026°25'9 9.4
2016-Dec-29 08:33N 38°07' W 026°37'9 8.9
2016-Dec-29 07:33N 38°08' W 026°48'8 8.5
2016-Dec-29 06:33N 38°08' W 026°59'8 8.4
2016-Dec-29 05:33N 38°09' W 027°10'9 8.9
2016-Dec-29 04:33N 38°09' W 027°21'8 7.7
2016-Dec-29 03:33N 38°09' W 027°31'8 7.5
2016-Dec-29 02:33N 38°10' W 027°40'8 7.8
2016-Dec-29 01:33N 38°10' W 027°50'9 8.7
2016-Dec-29 00:33N 38°10' W 028°01'8 8.4
2016-Dec-28 23:33N 38°11' W 028°12'9 9.2
2016-Dec-28 22:33N 38°12' W 028°24'10 9.7
2016-Dec-28 21:33N 38°12' W 028°36'9 9.1
2016-Dec-28 20:33N 38°12' W 028°48'9 9.1
2016-Dec-28 19:33N 38°13' W 028°59'9 8.5
2016-Dec-28 18:33N 38°13' W 029°10'9 8.6
2016-Dec-28 17:33N 38°14' W 029°21'  

Dump ship's entire track history